sensor_id;sensor_type;location;lat;lon;timestamp;P1;durP1;ratioP1;P2;durP2;ratioP2
17151;SDS011;8691;50.828;4.700;2023-09-07T00:00:25;5.57;;;4.93;;
17151;SDS011;8691;50.828;4.700;2023-09-07T00:02:53;5.23;;;4.70;;
17151;SDS011;8691;50.828;4.700;2023-09-07T00:05:20;6.30;;;4.63;;
17151;SDS011;8691;50.828;4.700;2023-09-07T00:07:46;4.97;;;4.57;;
17151;SDS011;8691;50.828;4.700;2023-09-07T00:10:13;7.07;;;4.60;;
17151;SDS011;8691;50.828;4.700;2023-09-07T00:12:40;5.62;;;4.78;;
17151;SDS011;8691;50.828;4.700;2023-09-07T00:15:07;5.20;;;4.70;;
17151;SDS011;8691;50.828;4.700;2023-09-07T00:17:35;7.33;;;4.70;;
17151;SDS011;8691;50.828;4.700;2023-09-07T00:20:03;7.10;;;5.00;;
17151;SDS011;8691;50.828;4.700;2023-09-07T00:22:35;7.43;;;4.93;;
17151;SDS011;8691;50.828;4.700;2023-09-07T00:25:02;6.12;;;5.03;;
17151;SDS011;8691;50.828;4.700;2023-09-07T00:27:30;5.25;;;4.53;;
17151;SDS011;8691;50.828;4.700;2023-09-07T00:29:57;5.00;;;4.60;;
17151;SDS011;8691;50.828;4.700;2023-09-07T00:32:24;5.53;;;5.03;;
17151;SDS011;8691;50.828;4.700;2023-09-07T00:34:51;5.35;;;4.82;;
17151;SDS011;8691;50.828;4.700;2023-09-07T00:37:18;4.53;;;3.73;;
17151;SDS011;8691;50.828;4.700;2023-09-07T00:39:44;7.25;;;4.85;;
17151;SDS011;8691;50.828;4.700;2023-09-07T00:42:11;5.57;;;4.75;;
17151;SDS011;8691;50.828;4.700;2023-09-07T00:44:38;6.97;;;5.20;;
17151;SDS011;8691;50.828;4.700;2023-09-07T00:47:05;5.50;;;4.90;;
17151;SDS011;8691;50.828;4.700;2023-09-07T00:49:32;8.27;;;5.00;;
17151;SDS011;8691;50.828;4.700;2023-09-07T00:51:59;5.60;;;5.00;;
17151;SDS011;8691;50.828;4.700;2023-09-07T00:54:26;4.83;;;4.30;;
17151;SDS011;8691;50.828;4.700;2023-09-07T00:56:54;5.38;;;4.80;;
17151;SDS011;8691;50.828;4.700;2023-09-07T00:59:20;6.83;;;5.00;;
17151;SDS011;8691;50.828;4.700;2023-09-07T01:01:46;6.43;;;5.18;;
17151;SDS011;8691;50.828;4.700;2023-09-07T01:04:13;5.30;;;4.80;;
17151;SDS011;8691;50.828;4.700;2023-09-07T01:06:42;6.53;;;5.03;;
17151;SDS011;8691;50.828;4.700;2023-09-07T01:09:17;5.33;;;4.83;;
17151;SDS011;8691;50.828;4.700;2023-09-07T01:11:42;5.88;;;5.10;;
17151;SDS011;8691;50.828;4.700;2023-09-07T01:14:09;5.85;;;5.25;;
17151;SDS011;8691;50.828;4.700;2023-09-07T01:16:36;5.67;;;5.00;;
17151;SDS011;8691;50.828;4.700;2023-09-07T01:19:02;6.03;;;4.33;;
17151;SDS011;8691;50.828;4.700;2023-09-07T01:21:36;6.50;;;5.28;;
17151;SDS011;8691;50.828;4.700;2023-09-07T01:24:08;5.75;;;5.03;;
17151;SDS011;8691;50.828;4.700;2023-09-07T01:26:35;5.90;;;5.30;;
17151;SDS011;8691;50.828;4.700;2023-09-07T01:29:02;6.90;;;5.00;;
17151;SDS011;8691;50.828;4.700;2023-09-07T01:31:28;6.38;;;4.80;;
17151;SDS011;8691;50.828;4.700;2023-09-07T01:33:56;5.62;;;4.72;;
17151;SDS011;8691;50.828;4.700;2023-09-07T01:36:24;5.30;;;4.80;;
17151;SDS011;8691;50.828;4.700;2023-09-07T01:38:51;5.57;;;4.88;;
17151;SDS011;8691;50.828;4.700;2023-09-07T01:41:18;6.20;;;5.10;;
17151;SDS011;8691;50.828;4.700;2023-09-07T01:43:45;6.63;;;5.00;;
17151;SDS011;8691;50.828;4.700;2023-09-07T01:46:13;6.10;;;5.23;;
17151;SDS011;8691;50.828;4.700;2023-09-07T01:48:40;5.80;;;5.20;;
17151;SDS011;8691;50.828;4.700;2023-09-07T01:51:07;5.27;;;4.77;;
17151;SDS011;8691;50.828;4.700;2023-09-07T01:53:35;6.22;;;4.90;;
17151;SDS011;8691;50.828;4.700;2023-09-07T01:56:01;5.50;;;4.70;;
17151;SDS011;8691;50.828;4.700;2023-09-07T01:58:28;8.10;;;4.93;;
17151;SDS011;8691;50.828;4.700;2023-09-07T02:00:58;6.10;;;4.85;;
17151;SDS011;8691;50.828;4.700;2023-09-07T02:03:26;5.30;;;4.80;;
17151;SDS011;8691;50.828;4.700;2023-09-07T02:05:53;6.03;;;4.90;;
17151;SDS011;8691;50.828;4.700;2023-09-07T02:08:19;6.85;;;5.25;;
17151;SDS011;8691;50.828;4.700;2023-09-07T02:10:46;4.53;;;4.10;;
17151;SDS011;8691;50.828;4.700;2023-09-07T02:13:13;6.20;;;4.70;;
17151;SDS011;8691;50.828;4.700;2023-09-07T02:15:40;5.80;;;4.75;;
17151;SDS011;8691;50.828;4.700;2023-09-07T02:18:07;5.73;;;4.80;;
17151;SDS011;8691;50.828;4.700;2023-09-07T02:20:34;5.95;;;5.00;;
17151;SDS011;8691;50.828;4.700;2023-09-07T02:23:01;6.47;;;5.10;;
17151;SDS011;8691;50.828;4.700;2023-09-07T02:25:27;5.00;;;4.47;;
17151;SDS011;8691;50.828;4.700;2023-09-07T02:27:54;6.12;;;4.55;;
17151;SDS011;8691;50.828;4.700;2023-09-07T02:30:22;6.55;;;4.40;;
17151;SDS011;8691;50.828;4.700;2023-09-07T02:32:48;5.23;;;4.47;;
17151;SDS011;8691;50.828;4.700;2023-09-07T02:35:15;5.62;;;4.90;;
17151;SDS011;8691;50.828;4.700;2023-09-07T02:37:42;5.72;;;5.10;;
17151;SDS011;8691;50.828;4.700;2023-09-07T02:40:09;6.40;;;4.57;;
17151;SDS011;8691;50.828;4.700;2023-09-07T02:42:36;7.50;;;4.80;;
17151;SDS011;8691;50.828;4.700;2023-09-07T02:45:03;6.53;;;4.82;;
17151;SDS011;8691;50.828;4.700;2023-09-07T02:47:31;5.82;;;5.10;;
17151;SDS011;8691;50.828;4.700;2023-09-07T02:49:59;6.10;;;4.63;;
17151;SDS011;8691;50.828;4.700;2023-09-07T02:52:26;5.35;;;4.80;;
17151;SDS011;8691;50.828;4.700;2023-09-07T02:54:54;4.13;;;3.77;;
17151;SDS011;8691;50.828;4.700;2023-09-07T02:57:20;4.90;;;4.40;;
17151;SDS011;8691;50.828;4.700;2023-09-07T02:59:47;5.20;;;4.80;;
17151;SDS011;8691;50.828;4.700;2023-09-07T03:02:14;4.80;;;4.30;;
17151;SDS011;8691;50.828;4.700;2023-09-07T03:04:41;4.68;;;4.20;;
17151;SDS011;8691;50.828;4.700;2023-09-07T03:07:09;5.50;;;4.35;;
17151;SDS011;8691;50.828;4.700;2023-09-07T03:09:35;7.10;;;4.70;;
17151;SDS011;8691;50.828;4.700;2023-09-07T03:12:02;5.50;;;4.88;;
17151;SDS011;8691;50.828;4.700;2023-09-07T03:14:29;6.07;;;4.62;;
17151;SDS011;8691;50.828;4.700;2023-09-07T03:16:56;5.47;;;4.67;;
17151;SDS011;8691;50.828;4.700;2023-09-07T03:19:23;6.18;;;4.88;;
17151;SDS011;8691;50.828;4.700;2023-09-07T03:21:50;7.18;;;5.20;;
17151;SDS011;8691;50.828;4.700;2023-09-07T03:24:17;5.50;;;4.90;;
17151;SDS011;8691;50.828;4.700;2023-09-07T03:26:44;5.00;;;4.50;;
17151;SDS011;8691;50.828;4.700;2023-09-07T03:29:11;4.77;;;4.00;;
17151;SDS011;8691;50.828;4.700;2023-09-07T03:31:37;5.22;;;4.57;;
17151;SDS011;8691;50.828;4.700;2023-09-07T03:34:04;5.03;;;4.53;;
17151;SDS011;8691;50.828;4.700;2023-09-07T03:36:32;5.63;;;4.70;;
17151;SDS011;8691;50.828;4.700;2023-09-07T03:38:59;5.70;;;4.60;;
17151;SDS011;8691;50.828;4.700;2023-09-07T03:41:26;5.60;;;5.03;;
17151;SDS011;8691;50.828;4.700;2023-09-07T03:43:53;5.20;;;4.70;;
17151;SDS011;8691;50.828;4.700;2023-09-07T03:46:20;4.47;;;4.07;;
17151;SDS011;8691;50.828;4.700;2023-09-07T03:48:47;6.03;;;4.65;;
17151;SDS011;8691;50.828;4.700;2023-09-07T03:51:14;4.90;;;4.20;;
17151;SDS011;8691;50.828;4.700;2023-09-07T03:53:40;4.73;;;3.37;;
17151;SDS011;8691;50.828;4.700;2023-09-07T03:56:07;4.85;;;4.32;;
17151;SDS011;8691;50.828;4.700;2023-09-07T03:58:34;5.20;;;4.62;;
17151;SDS011;8691;50.828;4.700;2023-09-07T04:01:01;5.03;;;4.30;;
17151;SDS011;8691;50.828;4.700;2023-09-07T04:03:28;4.95;;;4.45;;
17151;SDS011;8691;50.828;4.700;2023-09-07T04:05:54;5.30;;;4.80;;
17151;SDS011;8691;50.828;4.700;2023-09-07T04:08:21;4.57;;;3.83;;
17151;SDS011;8691;50.828;4.700;2023-09-07T04:10:48;5.20;;;4.68;;
17151;SDS011;8691;50.828;4.700;2023-09-07T04:13:15;5.18;;;4.65;;
17151;SDS011;8691;50.828;4.700;2023-09-07T04:15:45;6.67;;;4.50;;
17151;SDS011;8691;50.828;4.700;2023-09-07T04:18:12;4.63;;;4.23;;
17151;SDS011;8691;50.828;4.700;2023-09-07T04:20:39;5.20;;;4.70;;
17151;SDS011;8691;50.828;4.700;2023-09-07T04:23:06;5.83;;;4.57;;
17151;SDS011;8691;50.828;4.700;2023-09-07T04:25:33;5.07;;;4.57;;
17151;SDS011;8691;50.828;4.700;2023-09-07T04:28:00;4.53;;;4.10;;
17151;SDS011;8691;50.828;4.700;2023-09-07T04:30:27;4.90;;;4.07;;
17151;SDS011;8691;50.828;4.700;2023-09-07T04:32:54;7.70;;;5.00;;
17151;SDS011;8691;50.828;4.700;2023-09-07T04:35:21;5.35;;;4.68;;
17151;SDS011;8691;50.828;4.700;2023-09-07T04:37:48;4.93;;;4.43;;
17151;SDS011;8691;50.828;4.700;2023-09-07T04:40:14;5.73;;;4.17;;
17151;SDS011;8691;50.828;4.700;2023-09-07T04:42:41;5.82;;;4.85;;
17151;SDS011;8691;50.828;4.700;2023-09-07T04:45:08;5.28;;;4.78;;
17151;SDS011;8691;50.828;4.700;2023-09-07T04:47:35;5.12;;;4.62;;
17151;SDS011;8691;50.828;4.700;2023-09-07T04:50:02;5.35;;;4.85;;
17151;SDS011;8691;50.828;4.700;2023-09-07T04:52:29;5.20;;;4.70;;
17151;SDS011;8691;50.828;4.700;2023-09-07T04:54:55;6.60;;;4.10;;
17151;SDS011;8691;50.828;4.700;2023-09-07T04:57:22;4.95;;;4.45;;
17151;SDS011;8691;50.828;4.700;2023-09-07T04:59:49;6.10;;;4.23;;
17151;SDS011;8691;50.828;4.700;2023-09-07T05:02:16;5.78;;;5.18;;
17151;SDS011;8691;50.828;4.700;2023-09-07T05:04:43;5.40;;;4.90;;
17151;SDS011;8691;50.828;4.700;2023-09-07T05:07:09;5.57;;;4.72;;
17151;SDS011;8691;50.828;4.700;2023-09-07T05:09:36;6.60;;;5.63;;
17151;SDS011;8691;50.828;4.700;2023-09-07T05:12:03;5.20;;;4.53;;
17151;SDS011;8691;50.828;4.700;2023-09-07T05:14:30;5.95;;;5.20;;
17151;SDS011;8691;50.828;4.700;2023-09-07T05:16:57;6.18;;;5.57;;
17151;SDS011;8691;50.828;4.700;2023-09-07T05:19:24;5.95;;;5.35;;
17151;SDS011;8691;50.828;4.700;2023-09-07T05:21:50;5.37;;;4.87;;
17151;SDS011;8691;50.828;4.700;2023-09-07T05:24:17;5.82;;;5.25;;
17151;SDS011;8691;50.828;4.700;2023-09-07T05:26:44;4.70;;;4.20;;
17151;SDS011;8691;50.828;4.700;2023-09-07T05:29:11;7.85;;;6.00;;
17151;SDS011;8691;50.828;4.700;2023-09-07T05:31:38;7.72;;;5.88;;
17151;SDS011;8691;50.828;4.700;2023-09-07T05:34:05;7.47;;;5.65;;
17151;SDS011;8691;50.828;4.700;2023-09-07T05:36:31;6.47;;;5.80;;
17151;SDS011;8691;50.828;4.700;2023-09-07T05:38:59;6.25;;;5.60;;
17151;SDS011;8691;50.828;4.700;2023-09-07T05:41:26;6.07;;;5.32;;
17151;SDS011;8691;50.828;4.700;2023-09-07T05:43:53;5.50;;;4.62;;
17151;SDS011;8691;50.828;4.700;2023-09-07T05:46:20;5.43;;;4.93;;
17151;SDS011;8691;50.828;4.700;2023-09-07T05:48:47;6.22;;;5.62;;
17151;SDS011;8691;50.828;4.700;2023-09-07T05:51:14;7.00;;;5.70;;
17151;SDS011;8691;50.828;4.700;2023-09-07T05:53:40;5.17;;;4.67;;
17151;SDS011;8691;50.828;4.700;2023-09-07T05:56:07;6.15;;;5.00;;
17151;SDS011;8691;50.828;4.700;2023-09-07T05:58:34;7.28;;;5.22;;
17151;SDS011;8691;50.828;4.700;2023-09-07T06:01:01;6.32;;;5.00;;
17151;SDS011;8691;50.828;4.700;2023-09-07T06:03:28;8.62;;;4.78;;
17151;SDS011;8691;50.828;4.700;2023-09-07T06:05:56;4.97;;;4.43;;
17151;SDS011;8691;50.828;4.700;2023-09-07T06:08:22;4.97;;;4.47;;
17151;SDS011;8691;50.828;4.700;2023-09-07T06:10:49;6.87;;;4.67;;
17151;SDS011;8691;50.828;4.700;2023-09-07T06:13:16;5.90;;;4.57;;
17151;SDS011;8691;50.828;4.700;2023-09-07T06:15:43;5.90;;;4.30;;
17151;SDS011;8691;50.828;4.700;2023-09-07T06:18:10;5.87;;;4.00;;
17151;SDS011;8691;50.828;4.700;2023-09-07T06:20:37;4.40;;;3.75;;
17151;SDS011;8691;50.828;4.700;2023-09-07T06:23:04;5.22;;;4.30;;
17151;SDS011;8691;50.828;4.700;2023-09-07T06:25:31;6.23;;;4.40;;
17151;SDS011;8691;50.828;4.700;2023-09-07T06:27:58;5.07;;;3.95;;
17151;SDS011;8691;50.828;4.700;2023-09-07T06:30:25;8.60;;;4.30;;
17151;SDS011;8691;50.828;4.700;2023-09-07T06:32:52;4.50;;;4.10;;
17151;SDS011;8691;50.828;4.700;2023-09-07T06:35:19;5.40;;;4.30;;
17151;SDS011;8691;50.828;4.700;2023-09-07T06:37:46;5.43;;;4.20;;
17151;SDS011;8691;50.828;4.700;2023-09-07T06:40:13;5.03;;;4.00;;
17151;SDS011;8691;50.828;4.700;2023-09-07T06:42:40;6.07;;;4.20;;
17151;SDS011;8691;50.828;4.700;2023-09-07T06:45:07;5.90;;;4.78;;
17151;SDS011;8691;50.828;4.700;2023-09-07T06:47:34;7.93;;;4.93;;
17151;SDS011;8691;50.828;4.700;2023-09-07T06:50:02;6.13;;;4.23;;
17151;SDS011;8691;50.828;4.700;2023-09-07T06:52:28;5.10;;;4.60;;
17151;SDS011;8691;50.828;4.700;2023-09-07T06:54:55;6.67;;;5.07;;
17151;SDS011;8691;50.828;4.700;2023-09-07T06:57:22;5.18;;;4.60;;
17151;SDS011;8691;50.828;4.700;2023-09-07T06:59:49;5.63;;;4.70;;
17151;SDS011;8691;50.828;4.700;2023-09-07T07:02:17;5.47;;;4.57;;
17151;SDS011;8691;50.828;4.700;2023-09-07T07:04:44;5.43;;;4.57;;
17151;SDS011;8691;50.828;4.700;2023-09-07T07:07:11;5.50;;;4.00;;
17151;SDS011;8691;50.828;4.700;2023-09-07T07:09:39;4.63;;;4.23;;
17151;SDS011;8691;50.828;4.700;2023-09-07T07:12:06;4.47;;;4.07;;
17151;SDS011;8691;50.828;4.700;2023-09-07T07:14:33;4.53;;;4.13;;
17151;SDS011;8691;50.828;4.700;2023-09-07T07:17:00;4.35;;;3.95;;
17151;SDS011;8691;50.828;4.700;2023-09-07T07:19:27;5.18;;;3.67;;
17151;SDS011;8691;50.828;4.700;2023-09-07T07:21:54;5.57;;;4.10;;
17151;SDS011;8691;50.828;4.700;2023-09-07T07:24:21;4.43;;;4.03;;
17151;SDS011;8691;50.828;4.700;2023-09-07T07:26:48;6.18;;;4.50;;
17151;SDS011;8691;50.828;4.700;2023-09-07T07:29:15;4.78;;;4.38;;
17151;SDS011;8691;50.828;4.700;2023-09-07T07:31:42;6.53;;;4.15;;
17151;SDS011;8691;50.828;4.700;2023-09-07T07:34:10;4.97;;;4.47;;
17151;SDS011;8691;50.828;4.700;2023-09-07T07:36:36;4.70;;;4.30;;
17151;SDS011;8691;50.828;4.700;2023-09-07T07:39:03;5.20;;;4.38;;
17151;SDS011;8691;50.828;4.700;2023-09-07T07:41:30;6.00;;;4.60;;
17151;SDS011;8691;50.828;4.700;2023-09-07T07:43:57;5.30;;;4.07;;
17151;SDS011;8691;50.828;4.700;2023-09-07T07:46:24;5.65;;;4.00;;
17151;SDS011;8691;50.828;4.700;2023-09-07T07:48:52;4.78;;;3.90;;
17151;SDS011;8691;50.828;4.700;2023-09-07T07:51:19;4.40;;;4.00;;
17151;SDS011;8691;50.828;4.700;2023-09-07T07:53:46;4.93;;;3.95;;
17151;SDS011;8691;50.828;4.700;2023-09-07T07:56:16;5.05;;;4.55;;
17151;SDS011;8691;50.828;4.700;2023-09-07T07:58:43;4.85;;;4.35;;
17151;SDS011;8691;50.828;4.700;2023-09-07T08:01:13;4.93;;;4.50;;
17151;SDS011;8691;50.828;4.700;2023-09-07T08:03:39;5.20;;;4.53;;
17151;SDS011;8691;50.828;4.700;2023-09-07T08:06:06;5.57;;;4.82;;
17151;SDS011;8691;50.828;4.700;2023-09-07T08:08:33;6.10;;;5.03;;
17151;SDS011;8691;50.828;4.700;2023-09-07T08:11:00;5.68;;;4.70;;
17151;SDS011;8691;50.828;4.700;2023-09-07T08:13:27;7.25;;;5.00;;
17151;SDS011;8691;50.828;4.700;2023-09-07T08:15:54;5.93;;;5.12;;
17151;SDS011;8691;50.828;4.700;2023-09-07T08:18:21;5.53;;;5.00;;
17151;SDS011;8691;50.828;4.700;2023-09-07T08:20:48;6.13;;;5.00;;
17151;SDS011;8691;50.828;4.700;2023-09-07T08:23:15;5.40;;;4.90;;
17151;SDS011;8691;50.828;4.700;2023-09-07T08:25:42;12.38;;;4.85;;
17151;SDS011;8691;50.828;4.700;2023-09-07T08:28:09;5.55;;;5.05;;
17151;SDS011;8691;50.828;4.700;2023-09-07T08:30:36;7.32;;;4.90;;
17151;SDS011;8691;50.828;4.700;2023-09-07T08:33:03;6.55;;;5.07;;
17151;SDS011;8691;50.828;4.700;2023-09-07T08:35:30;6.80;;;4.77;;
17151;SDS011;8691;50.828;4.700;2023-09-07T08:37:57;5.80;;;4.60;;
17151;SDS011;8691;50.828;4.700;2023-09-07T08:40:25;5.60;;;4.68;;
17151;SDS011;8691;50.828;4.700;2023-09-07T08:42:51;6.60;;;4.88;;
17151;SDS011;8691;50.828;4.700;2023-09-07T08:45:19;5.78;;;4.32;;
17151;SDS011;8691;50.828;4.700;2023-09-07T08:47:46;5.68;;;4.40;;
17151;SDS011;8691;50.828;4.700;2023-09-07T08:50:13;5.50;;;4.80;;
17151;SDS011;8691;50.828;4.700;2023-09-07T08:52:40;5.40;;;4.90;;
17151;SDS011;8691;50.828;4.700;2023-09-07T08:55:07;5.00;;;4.50;;
17151;SDS011;8691;50.828;4.700;2023-09-07T08:57:33;4.73;;;4.30;;
17151;SDS011;8691;50.828;4.700;2023-09-07T09:00:01;5.60;;;4.62;;
17151;SDS011;8691;50.828;4.700;2023-09-07T09:02:28;5.12;;;4.15;;
17151;SDS011;8691;50.828;4.700;2023-09-07T09:04:55;4.40;;;4.00;;
17151;SDS011;8691;50.828;4.700;2023-09-07T09:07:22;4.87;;;4.00;;
17151;SDS011;8691;50.828;4.700;2023-09-07T09:09:49;4.43;;;3.90;;
17151;SDS011;8691;50.828;4.700;2023-09-07T09:12:16;3.85;;;3.55;;
17151;SDS011;8691;50.828;4.700;2023-09-07T09:14:43;4.53;;;4.10;;
17151;SDS011;8691;50.828;4.700;2023-09-07T09:17:13;5.62;;;3.70;;
17151;SDS011;8691;50.828;4.700;2023-09-07T09:19:39;4.57;;;3.80;;
17151;SDS011;8691;50.828;4.700;2023-09-07T09:22:06;4.13;;;3.73;;
17151;SDS011;8691;50.828;4.700;2023-09-07T09:24:34;4.93;;;3.40;;
17151;SDS011;8691;50.828;4.700;2023-09-07T09:27:01;6.38;;;3.72;;
17151;SDS011;8691;50.828;4.700;2023-09-07T09:29:28;4.90;;;3.57;;
17151;SDS011;8691;50.828;4.700;2023-09-07T09:31:55;5.00;;;3.50;;
17151;SDS011;8691;50.828;4.700;2023-09-07T09:34:23;6.40;;;3.80;;
17151;SDS011;8691;50.828;4.700;2023-09-07T09:36:50;3.92;;;3.58;;
17151;SDS011;8691;50.828;4.700;2023-09-07T09:39:23;3.30;;;3.00;;
17151;SDS011;8691;50.828;4.700;2023-09-07T09:41:50;3.30;;;2.70;;
17151;SDS011;8691;50.828;4.700;2023-09-07T09:44:17;3.42;;;2.78;;
17151;SDS011;8691;50.828;4.700;2023-09-07T09:46:44;3.20;;;2.90;;
17151;SDS011;8691;50.828;4.700;2023-09-07T09:49:12;3.75;;;3.00;;
17151;SDS011;8691;50.828;4.700;2023-09-07T09:51:39;4.83;;;2.90;;
17151;SDS011;8691;50.828;4.700;2023-09-07T09:54:06;5.03;;;2.77;;
17151;SDS011;8691;50.828;4.700;2023-09-07T09:56:33;3.10;;;2.80;;
17151;SDS011;8691;50.828;4.700;2023-09-07T09:59:00;4.38;;;2.83;;
17151;SDS011;8691;50.828;4.700;2023-09-07T10:01:28;3.28;;;2.97;;
17151;SDS011;8691;50.828;4.700;2023-09-07T10:03:55;3.17;;;2.65;;
17151;SDS011;8691;50.828;4.700;2023-09-07T10:06:23;3.57;;;3.23;;
17151;SDS011;8691;50.828;4.700;2023-09-07T10:08:57;2.77;;;1.80;;
17151;SDS011;8691;50.828;4.700;2023-09-07T10:11:34;3.63;;;2.60;;
17151;SDS011;8691;50.828;4.700;2023-09-07T10:13:58;3.67;;;2.17;;
17151;SDS011;8691;50.828;4.700;2023-09-07T10:16:24;2.78;;;1.90;;
17151;SDS011;8691;50.828;4.700;2023-09-07T10:18:51;2.37;;;2.10;;
17151;SDS011;8691;50.828;4.700;2023-09-07T10:21:18;2.35;;;2.10;;
17151;SDS011;8691;50.828;4.700;2023-09-07T10:23:45;2.47;;;1.85;;
17151;SDS011;8691;50.828;4.700;2023-09-07T10:26:16;2.20;;;2.00;;
17151;SDS011;8691;50.828;4.700;2023-09-07T10:28:43;2.50;;;2.20;;
17151;SDS011;8691;50.828;4.700;2023-09-07T10:33:39;3.15;;;1.95;;
17151;SDS011;8691;50.828;4.700;2023-09-07T10:36:06;2.37;;;1.80;;
17151;SDS011;8691;50.828;4.700;2023-09-07T10:38:36;2.30;;;2.10;;
17151;SDS011;8691;50.828;4.700;2023-09-07T10:41:04;2.97;;;2.00;;
17151;SDS011;8691;50.828;4.700;2023-09-07T10:43:31;2.63;;;2.00;;
17151;SDS011;8691;50.828;4.700;2023-09-07T10:45:57;2.40;;;2.10;;
17151;SDS011;8691;50.828;4.700;2023-09-07T10:48:28;2.70;;;2.10;;
17151;SDS011;8691;50.828;4.700;2023-09-07T10:50:53;3.97;;;2.03;;
17151;SDS011;8691;50.828;4.700;2023-09-07T10:53:30;4.32;;;2.45;;
17151;SDS011;8691;50.828;4.700;2023-09-07T10:55:59;2.90;;;2.20;;
17151;SDS011;8691;50.828;4.700;2023-09-07T10:58:30;2.70;;;2.50;;
17151;SDS011;8691;50.828;4.700;2023-09-07T11:00:56;4.00;;;2.60;;
17151;SDS011;8691;50.828;4.700;2023-09-07T11:03:27;2.57;;;2.37;;
17151;SDS011;8691;50.828;4.700;2023-09-07T11:05:57;5.00;;;2.50;;
17151;SDS011;8691;50.828;4.700;2023-09-07T11:08:33;2.70;;;2.50;;
17151;SDS011;8691;50.828;4.700;2023-09-07T11:11:00;3.90;;;2.93;;
17151;SDS011;8691;50.828;4.700;2023-09-07T11:13:27;2.60;;;2.40;;
17151;SDS011;8691;50.828;4.700;2023-09-07T11:15:55;2.62;;;2.42;;
17151;SDS011;8691;50.828;4.700;2023-09-07T11:18:21;3.90;;;2.93;;
17151;SDS011;8691;50.828;4.700;2023-09-07T11:20:48;3.15;;;2.83;;
17151;SDS011;8691;50.828;4.700;2023-09-07T11:23:18;3.57;;;2.60;;
17151;SDS011;8691;50.828;4.700;2023-09-07T11:25:46;3.40;;;2.50;;
17151;SDS011;8691;50.828;4.700;2023-09-07T11:28:12;6.20;;;2.60;;
17151;SDS011;8691;50.828;4.700;2023-09-07T11:30:48;3.50;;;2.70;;
17151;SDS011;8691;50.828;4.700;2023-09-07T11:33:15;3.25;;;2.78;;
17151;SDS011;8691;50.828;4.700;2023-09-07T11:35:41;3.58;;;2.83;;
17151;SDS011;8691;50.828;4.700;2023-09-07T11:38:11;5.93;;;2.70;;
17151;SDS011;8691;50.828;4.700;2023-09-07T11:40:35;3.03;;;2.67;;
17151;SDS011;8691;50.828;4.700;2023-09-07T11:43:02;3.80;;;2.60;;
17151;SDS011;8691;50.828;4.700;2023-09-07T11:45:29;4.03;;;2.90;;
17151;SDS011;8691;50.828;4.700;2023-09-07T11:47:56;2.67;;;2.47;;
17151;SDS011;8691;50.828;4.700;2023-09-07T11:50:23;4.40;;;2.90;;
17151;SDS011;8691;50.828;4.700;2023-09-07T11:52:50;3.72;;;3.00;;
17151;SDS011;8691;50.828;4.700;2023-09-07T11:55:18;5.50;;;3.13;;
17151;SDS011;8691;50.828;4.700;2023-09-07T11:57:46;3.60;;;2.87;;
17151;SDS011;8691;50.828;4.700;2023-09-07T12:00:13;4.68;;;2.90;;
17151;SDS011;8691;50.828;4.700;2023-09-07T12:02:40;3.75;;;2.97;;
17151;SDS011;8691;50.828;4.700;2023-09-07T12:05:07;6.97;;;3.20;;
17151;SDS011;8691;50.828;4.700;2023-09-07T12:07:37;4.93;;;3.20;;
17151;SDS011;8691;50.828;4.700;2023-09-07T12:10:04;3.40;;;3.10;;
17151;SDS011;8691;50.828;4.700;2023-09-07T12:12:31;3.60;;;3.10;;
17151;SDS011;8691;50.828;4.700;2023-09-07T12:14:57;4.60;;;3.30;;
17151;SDS011;8691;50.828;4.700;2023-09-07T12:17:24;5.03;;;2.90;;
17151;SDS011;8691;50.828;4.700;2023-09-07T12:19:51;4.50;;;2.90;;
17151;SDS011;8691;50.828;4.700;2023-09-07T12:22:18;4.57;;;2.90;;
17151;SDS011;8691;50.828;4.700;2023-09-07T12:24:45;3.65;;;2.60;;
17151;SDS011;8691;50.828;4.700;2023-09-07T12:27:12;4.28;;;2.70;;
17151;SDS011;8691;50.828;4.700;2023-09-07T12:29:38;4.23;;;2.80;;
17151;SDS011;8691;50.828;4.700;2023-09-07T12:32:05;4.10;;;2.80;;
17151;SDS011;8691;50.828;4.700;2023-09-07T12:34:32;4.07;;;2.70;;
17151;SDS011;8691;50.828;4.700;2023-09-07T12:37:01;4.30;;;2.90;;
17151;SDS011;8691;50.828;4.700;2023-09-07T12:39:27;5.43;;;3.10;;
17151;SDS011;8691;50.828;4.700;2023-09-07T12:41:54;4.03;;;2.97;;
17151;SDS011;8691;50.828;4.700;2023-09-07T12:44:21;4.50;;;3.03;;
17151;SDS011;8691;50.828;4.700;2023-09-07T12:46:48;2.90;;;2.57;;
17151;SDS011;8691;50.828;4.700;2023-09-07T12:49:15;4.27;;;2.73;;
17151;SDS011;8691;50.828;4.700;2023-09-07T12:51:42;4.27;;;2.90;;
17151;SDS011;8691;50.828;4.700;2023-09-07T12:54:09;4.62;;;2.83;;
17151;SDS011;8691;50.828;4.700;2023-09-07T12:56:35;3.77;;;2.70;;
17151;SDS011;8691;50.828;4.700;2023-09-07T12:59:02;4.15;;;2.90;;
17151;SDS011;8691;50.828;4.700;2023-09-07T13:01:29;3.88;;;2.60;;
17151;SDS011;8691;50.828;4.700;2023-09-07T13:03:57;3.88;;;3.03;;
17151;SDS011;8691;50.828;4.700;2023-09-07T13:06:24;4.27;;;2.80;;
17151;SDS011;8691;50.828;4.700;2023-09-07T13:08:50;4.30;;;3.10;;
17151;SDS011;8691;50.828;4.700;2023-09-07T13:11:18;4.78;;;3.17;;
17151;SDS011;8691;50.828;4.700;2023-09-07T13:13:44;4.13;;;3.13;;
17151;SDS011;8691;50.828;4.700;2023-09-07T13:16:11;4.47;;;2.90;;
17151;SDS011;8691;50.828;4.700;2023-09-07T13:18:39;3.50;;;2.60;;
17151;SDS011;8691;50.828;4.700;2023-09-07T13:21:06;4.07;;;2.65;;
17151;SDS011;8691;50.828;4.700;2023-09-07T13:23:33;5.25;;;2.97;;
17151;SDS011;8691;50.828;4.700;2023-09-07T13:26:00;4.40;;;2.47;;
17151;SDS011;8691;50.828;4.700;2023-09-07T13:28:27;4.43;;;2.50;;
17151;SDS011;8691;50.828;4.700;2023-09-07T13:30:55;3.70;;;2.70;;
17151;SDS011;8691;50.828;4.700;2023-09-07T13:33:21;5.17;;;2.63;;
17151;SDS011;8691;50.828;4.700;2023-09-07T13:35:48;3.00;;;2.70;;
17151;SDS011;8691;50.828;4.700;2023-09-07T13:38:15;2.90;;;2.60;;
17151;SDS011;8691;50.828;4.700;2023-09-07T13:40:42;4.03;;;2.70;;
17151;SDS011;8691;50.828;4.700;2023-09-07T13:43:09;3.05;;;2.58;;
17151;SDS011;8691;50.828;4.700;2023-09-07T13:45:37;3.80;;;2.73;;
17151;SDS011;8691;50.828;4.700;2023-09-07T13:48:04;5.00;;;2.78;;
17151;SDS011;8691;50.828;4.700;2023-09-07T13:50:31;4.18;;;2.95;;
17151;SDS011;8691;50.828;4.700;2023-09-07T13:52:58;3.03;;;2.67;;
17151;SDS011;8691;50.828;4.700;2023-09-07T13:55:25;3.08;;;2.65;;
17151;SDS011;8691;50.828;4.700;2023-09-07T13:57:52;6.17;;;2.70;;
17151;SDS011;8691;50.828;4.700;2023-09-07T14:00:20;2.72;;;2.50;;
17151;SDS011;8691;50.828;4.700;2023-09-07T14:02:47;4.05;;;2.50;;
17151;SDS011;8691;50.828;4.700;2023-09-07T14:05:14;4.35;;;2.92;;
17151;SDS011;8691;50.828;4.700;2023-09-07T14:07:41;3.00;;;2.70;;
17151;SDS011;8691;50.828;4.700;2023-09-07T14:10:08;4.20;;;2.67;;
17151;SDS011;8691;50.828;4.700;2023-09-07T14:12:34;3.97;;;2.97;;
17151;SDS011;8691;50.828;4.700;2023-09-07T14:15:01;3.28;;;2.60;;
17151;SDS011;8691;50.828;4.700;2023-09-07T14:17:29;3.15;;;2.60;;
17151;SDS011;8691;50.828;4.700;2023-09-07T14:19:56;2.95;;;2.67;;
17151;SDS011;8691;50.828;4.700;2023-09-07T14:22:23;3.47;;;2.73;;
17151;SDS011;8691;50.828;4.700;2023-09-07T14:24:50;3.63;;;2.77;;
17151;SDS011;8691;50.828;4.700;2023-09-07T14:27:17;3.28;;;2.85;;
17151;SDS011;8691;50.828;4.700;2023-09-07T14:29:43;2.93;;;2.63;;
17151;SDS011;8691;50.828;4.700;2023-09-07T14:32:11;2.67;;;2.47;;
17151;SDS011;8691;50.828;4.700;2023-09-07T14:34:38;3.10;;;2.80;;
17151;SDS011;8691;50.828;4.700;2023-09-07T14:37:04;3.60;;;2.53;;
17151;SDS011;8691;50.828;4.700;2023-09-07T14:39:31;3.00;;;2.67;;
17151;SDS011;8691;50.828;4.700;2023-09-07T14:41:58;4.07;;;2.70;;
17151;SDS011;8691;50.828;4.700;2023-09-07T14:44:25;3.20;;;2.90;;
17151;SDS011;8691;50.828;4.700;2023-09-07T14:46:52;3.07;;;2.77;;
17151;SDS011;8691;50.828;4.700;2023-09-07T14:49:19;4.22;;;2.75;;
17151;SDS011;8691;50.828;4.700;2023-09-07T14:51:45;3.10;;;2.70;;
17151;SDS011;8691;50.828;4.700;2023-09-07T14:54:13;4.35;;;2.53;;
17151;SDS011;8691;50.828;4.700;2023-09-07T14:56:41;4.23;;;2.83;;
17151;SDS011;8691;50.828;4.700;2023-09-07T14:59:08;4.00;;;2.70;;
17151;SDS011;8691;50.828;4.700;2023-09-07T15:01:35;4.27;;;2.70;;